• Join FlightAware (Why Join?)
  • Login
  • US Flag 
07:50AM EDT


 

Airport Tracker/Info


-or-


 

Live Flight TrackerFlight Track Log ✈ KAP550 ✈ 13-May-2013 ✈ KALB - KMSS

Flight Track Log - Related Links

Times and Time Zones

All times are in EDT time to prevent confusion due to time zone crossing. See the KAP550 flight status page for this flight to view local times or setup timezone preferences in your user account.

Time Position Orientation Groundspeed Altitude Reporting Facility
EDT Latitude Longitude Course Direction KTS MPH feet Rate Location/Type
10:53AM 42.7483 -73.8169 298° West 106 122 900  Level Boston Center
10:54AM 42.7586 -73.8428 298° West 113 130 1,800 1,200 Climbing Boston Center
10:55AM 42.7939 -73.8436 359° North 127 146 3,100 1,200 Climbing Boston Center
10:56AM 42.8314 -73.8500 353° North 135 155 4,300 1,140 Climbing Boston Center
10:57AM 42.8708 -73.8594 350° North 131 151 5,600 1,140 Climbing Boston Center
10:58AM 42.9064 -73.8631 356° North 130 150 6,800 720 Climbing Boston Center
10:59AM 42.9458 -73.8753 347° North 150 173 7,100 120 Climbing Boston Center
11:00AM 42.9914 -73.8819 354° North 168 193 7,100  Level Boston Center
11:01AM 43.0394 -73.8889 354° North 161 185 7,100 360 Level Boston Center
11:02AM 43.0767 -73.8956 353° North 130 150 7,900 480 Climbing Boston Center
11:03AM 43.0975 -73.8989 353° North 129 148 8,000 180 Climbing Boston Center
11:04AM 43.1350 -73.9025 356° North 129 148 8,300 300 Climbing Boston Center
11:05AM 43.1703 -73.9092 352° North 129 148 8,700 300 Climbing Boston Center
11:06AM 43.2119 -73.9186 351° North 129 148 9,000 120 Climbing Boston Center
11:07AM 43.2494 -73.9253 353° North 144 166 9,000  Level Boston Center
11:08AM 43.3097 -73.9381 351° North 154 177 9,000 180 Level Boston Center
11:09AM 43.3533 -73.9478 351° North 159 183 9,400 300 Climbing Boston Center
11:10AM 43.3947 -73.9603 348° North 154 177 9,700 300 Climbing Boston Center
11:11AM 43.4322 -73.9639 356° North 154 177 10,000 120 Climbing Boston Center
11:12AM 43.4758 -73.9850 341° North 154 177 10,000  Level Boston Center
11:13AM 43.5192 -74.0119 336° Northwest 160 184 10,000  Level Boston Center
11:14AM 43.5606 -74.0331 340° North 160 184 10,000  Level Boston Center
11:15AM 43.6039 -74.0572 338° Northwest 166 191 10,000  Level Boston Center
11:16AM 43.6472 -74.0869 334° Northwest 166 191 10,000  Level Boston Center
11:17AM 43.6867 -74.1083 339° North 166 191 10,100  Climbing Boston Center
11:18AM 43.7300 -74.1325 338° Northwest 166 191 10,100  Level Boston Center
11:19AM 43.7714 -74.1567 337° Northwest 166 191 10,100  Level Boston Center
11:20AM 43.8125 -74.1808 337° Northwest 166 191 10,100  Level Boston Center
11:21AM 43.8561 -74.2050 338° Northwest 161 185 10,100  Level Boston Center
11:22AM 43.8972 -74.2292 337° Northwest 161 185 10,100 -60 Level Boston Center
11:23AM 43.9406 -74.2567 335° Northwest 161 185 10,000 -60 Descending Boston Center
11:24AM 43.9842 -74.2781 341° North 161 185 10,000  Level Boston Center
11:25AM 44.0233 -74.3025 336° Northwest 161 185 10,000  Level Boston Center
11:26AM 44.0625 -74.3267 336° Northwest 161 185 10,000  Level Boston Center
11:27AM 44.1039 -74.3511 337° Northwest 155 178 10,000  Level Boston Center
11:28AM 44.1472 -74.3756 338° Northwest 155 178 10,000  Level Boston Center
11:29AM 44.1883 -74.3972 339° North 155 178 10,000  Level Boston Center
11:30AM 44.2317 -74.4247 336° Northwest 155 178 10,000  Level Boston Center
11:31AM 44.2750 -74.4494 338° Northwest 155 178 10,000  Level Boston Center
11:32AM 44.3100 -74.4797 328° Northwest 155 178 10,000 -240 Level Boston Center
11:33AM 44.3489 -74.5186 324° Northwest 161 185 9,600 -600 Descending Boston Center
11:34AM 44.3878 -74.5578 324° Northwest 171 197 8,900 -660 Descending Boston Center
11:36AM 44.4369 -74.6003 328° Northwest 171 197 8,200 -660 Descending Boston Center
11:37AM 44.4736 -74.6425 321° Northwest 171 197 7,500 -720 Descending Boston Center
11:38AM 44.5147 -74.6761 330° Northwest 171 197 6,800 -780 Descending Boston Center
11:39AM 44.5472 -74.7150 320° Northwest 171 197 6,000 -900 Descending Boston Center
11:40AM 44.5903 -74.7575 325° Northwest 171 197 5,000 -540 Descending Boston Center
11:41AM 44.6247 -74.7939 323° Northwest 171 197 5,000  Level Boston Center